Time;durP1;ratioP1;P1;durP2;ratioP2;P2;SDS_P1;SDS_P2;PMS_P1;PMS_P2;Temp;Humidity;BMP_temperature;BMP_pressure;BME280_temperature;BME280_humidity;BME280_pressure;Samples;Min_cycle;Max_cycle;Signal;HPM_P1;HPM_P2
2021/07/31 00:01:55;;;;;;;3.37;1.17;;;17.00;83.60;;;;;;5053685;28;20187;-69
2021/07/31 00:04:22;;;;;;;3.63;0.97;;;16.90;84.90;;;;;;5053859;28;20194;-68
2021/07/31 00:06:49;;;;;;;5.13;1.47;;;16.80;83.70;;;;;;5053854;28;20195;-70
2021/07/31 00:09:17;;;;;;;1.27;0.80;;;16.70;84.70;;;;;;5051426;28;20191;-68
2021/07/31 00:11:45;;;;;;;2.50;0.80;;;16.70;84.30;;;;;;5054564;28;20187;-67
2021/07/31 00:14:13;;;;;;;4.40;0.90;;;16.80;84.30;;;;;;5053937;28;20267;-67
2021/07/31 00:16:41;;;;;;;4.63;1.03;;;16.90;84.60;;;;;;5046834;28;20231;-69
2021/07/31 00:19:08;;;;;;;4.43;1.20;;;17.20;83.50;;;;;;5033983;28;20183;-67
2021/07/31 00:21:36;;;;;;;2.23;1.00;;;17.30;83.20;;;;;;5053721;28;20191;-68
2021/07/31 00:24:03;;;;;;;8.17;1.10;;;17.50;82.60;;;;;;5053958;28;20172;-68
2021/07/31 00:26:31;;;;;;;1.70;0.83;;;17.80;82.80;;;;;;5053298;28;20660;-69
2021/07/31 00:28:58;;;;;;;2.80;0.77;;;17.90;80.70;;;;;;5047775;28;20185;-70
2021/07/31 00:31:25;;;;;;;3.60;0.70;;;17.60;80.80;;;;;;5044172;28;20211;-68
2021/07/31 00:33:53;;;;;;;4.83;1.00;;;17.80;80.60;;;;;;5053250;28;20192;-68
2021/07/31 00:36:20;;;;;;;0.93;0.70;;;17.70;81.30;;;;;;5052346;28;20215;-69
2021/07/31 00:38:47;;;;;;;2.73;1.00;;;17.70;81.30;;;;;;5047595;28;20176;-68
2021/07/31 00:41:14;;;;;;;1.70;1.03;;;17.60;81.30;;;;;;5049791;28;20188;-69
2021/07/31 00:43:42;;;;;;;1.43;0.73;;;17.70;81.30;;;;;;5051357;28;20184;-68
2021/07/31 00:46:11;;;;;;;1.87;0.60;;;17.70;81.00;;;;;;5053038;28;20176;-67
2021/07/31 00:48:38;;;;;;;3.13;0.80;;;17.70;81.00;;;;;;5053003;28;20176;-68
2021/07/31 00:51:06;;;;;;;2.57;0.80;;;17.90;81.50;;;;;;5053606;28;20275;-69
2021/07/31 00:53:33;;;;;;;3.43;0.73;;;18.00;81.60;;;;;;5053304;28;20245;-69
2021/07/31 00:56:01;;;;;;;2.10;0.83;;;18.00;82.30;;;;;;5053533;28;20555;-69
2021/07/31 00:58:29;;;;;;;4.30;0.80;;;18.20;81.80;;;;;;5053086;28;20203;-68
2021/07/31 01:00:56;;;;;;;2.67;0.70;;;18.30;80.90;;;;;;5053153;28;20195;-69
2021/07/31 01:03:23;;;;;;;4.77;1.00;;;18.40;79.90;;;;;;5053380;28;20172;-68
2021/07/31 01:05:51;;;;;;;2.50;0.70;;;18.40;80.00;;;;;;5053573;28;20574;-69
2021/07/31 01:08:18;;;;;;;2.43;1.00;;;18.20;80.50;;;;;;5051978;28;20187;-68
2021/07/31 01:10:46;;;;;;;4.33;1.23;;;18.20;80.10;;;;;;5037133;28;20183;-71
2021/07/31 01:13:13;;;;;;;3.20;1.07;;;18.20;80.60;;;;;;5052940;28;20187;-68
2021/07/31 01:16:09;;;;;;;4.60;1.57;;;18.10;81.20;;;;;;5053158;28;20227;-69
2021/07/31 01:18:38;;;;;;;1.33;0.90;;;18.10;81.30;;;;;;5057355;28;20661;-68
2021/07/31 01:21:05;;;;;;;3.60;0.80;;;18.10;82.20;;;;;;5052692;28;20284;-69
2021/07/31 01:23:33;;;;;;;2.53;0.80;;;18.00;82.40;;;;;;5052836;28;20188;-68
2021/07/31 01:26:00;;;;;;;4.87;1.03;;;18.00;82.60;;;;;;5052901;28;20167;-69
2021/07/31 01:28:27;;;;;;;6.87;1.47;;;17.90;83.00;;;;;;5049088;28;20187;-68
2021/07/31 01:30:55;;;;;;;6.38;1.48;;;17.90;83.70;;;;;;5049379;28;20409;-69
2021/07/31 01:33:22;;;;;;;3.47;1.07;;;17.80;83.10;;;;;;5053188;28;20307;-69
2021/07/31 01:35:50;;;;;;;3.87;1.53;;;17.90;82.70;;;;;;5071254;28;20210;-68
2021/07/31 01:38:17;;;;;;;3.13;1.37;;;17.90;83.10;;;;;;5057433;28;20187;-68
2021/07/31 01:40:44;;;;;;;5.20;1.10;;;18.00;82.60;;;;;;5057553;28;20187;-67
2021/07/31 01:43:12;;;;;;;3.50;1.10;;;18.00;83.10;;;;;;5070535;28;20539;-68
2021/07/31 01:45:39;;;;;;;4.87;1.17;;;18.00;82.80;;;;;;5051168;28;20211;-68
2021/07/31 01:48:06;;;;;;;2.50;0.90;;;18.10;82.90;;;;;;5048840;28;20272;-68
2021/07/31 01:50:33;;;;;;;2.70;0.97;;;18.10;83.00;;;;;;5052185;28;20179;-68
2021/07/31 01:53:01;;;;;;;2.63;0.90;;;18.10;83.20;;;;;;5051452;28;20237;-68
2021/07/31 01:55:28;;;;;;;2.43;1.10;;;18.00;83.00;;;;;;5052004;28;20564;-68
2021/07/31 01:57:55;;;;;;;2.80;0.93;;;18.00;82.60;;;;;;5051851;28;20180;-67
2021/07/31 02:00:30;;;;;;;2.03;0.83;;;18.00;82.20;;;;;;5051800;28;20176;-67
2021/07/31 02:03:04;;;;;;;2.63;1.20;;;18.10;82.70;;;;;;5057595;28;20187;-69
2021/07/31 02:05:42;;;;;;;3.67;1.10;;;18.30;81.90;;;;;;5037275;28;20572;-68
2021/07/31 02:08:19;;;;;;;2.30;0.97;;;18.40;81.50;;;;;;5049630;28;20204;-68
2021/07/31 02:11:11;;;;;;;2.00;0.80;;;18.60;80.80;;;;;;5049127;28;20191;-68
2021/07/31 02:13:48;;;;;;;2.20;0.97;;;19.20;79.50;;;;;;5050799;28;20271;-68
2021/07/31 02:16:38;;;;;;;1.50;0.70;;;19.70;79.00;;;;;;5050774;28;20219;-71
2021/07/31 02:19:05;;;;;;;4.37;0.80;;;19.60;77.90;;;;;;5042050;28;20273;-70
2021/07/31 02:21:32;;;;;;;2.40;0.90;;;19.90;77.00;;;;;;5050433;28;20176;-68
2021/07/31 02:24:01;;;;;;;3.03;0.70;;;19.90;76.90;;;;;;5040642;28;20204;-68
2021/07/31 02:26:28;;;;;;;2.47;0.80;;;19.60;77.90;;;;;;5050385;28;20175;-68
2021/07/31 02:28:56;;;;;;;2.80;0.80;;;19.20;78.20;;;;;;5051303;28;20176;-69
2021/07/31 02:31:23;;;;;;;3.47;1.10;;;19.20;78.30;;;;;;5051183;28;20550;-69
2021/07/31 02:33:50;;;;;;;4.37;1.10;;;19.60;79.00;;;;;;5051048;28;20191;-68
2021/07/31 02:36:18;;;;;;;2.77;0.90;;;19.80;77.80;;;;;;5050800;28;20211;-69
2021/07/31 02:38:45;;;;;;;2.40;0.97;;;19.70;78.40;;;;;;5050871;28;20626;-66
2021/07/31 02:41:13;;;;;;;1.43;0.80;;;19.20;78.00;;;;;;5051746;28;20668;-67
2021/07/31 02:43:40;;;;;;;3.03;1.13;;;19.10;79.50;;;;;;5051769;28;20298;-67
2021/07/31 02:46:09;;;;;;;3.53;1.00;;;19.30;78.60;;;;;;5049873;28;20187;-68
2021/07/31 02:48:38;;;;;;;3.33;0.90;;;19.50;79.40;;;;;;5051029;28;20168;-68
2021/07/31 02:51:06;;;;;;;5.23;1.10;;;19.60;79.50;;;;;;5050841;28;20283;-68
2021/07/31 02:53:34;;;;;;;3.80;0.60;;;19.80;78.40;;;;;;5053916;28;20168;-68
2021/07/31 02:56:01;;;;;;;4.40;0.90;;;20.70;77.00;;;;;;5055338;28;20200;-67
2021/07/31 02:58:28;;;;;;;3.03;1.00;;;21.20;76.50;;;;;;5051056;28;20230;-68
2021/07/31 03:00:56;;;;;;;3.47;1.00;;;21.70;75.20;;;;;;5050681;28;20259;-68
2021/07/31 03:03:23;;;;;;;1.93;0.80;;;22.20;73.80;;;;;;5041139;28;20219;-68
2021/07/31 03:05:56;;;;;;;3.70;1.10;;;22.10;74.20;;;;;;5054014;28;20207;-68
2021/07/31 03:08:23;;;;;;;3.97;1.00;;;21.80;74.00;;;;;;5065942;28;20716;-68
2021/07/31 03:11:00;;;;;;;2.77;0.90;;;21.50;74.50;;;;;;5054261;28;20180;-68
2021/07/31 03:13:28;;;;;;;3.10;0.97;;;21.00;75.30;;;;;;5054190;28;20237;-69
2021/07/31 03:15:55;;;;;;;3.13;0.80;;;20.90;76.00;;;;;;5053980;28;21192;-68
2021/07/31 03:18:23;;;;;;;5.43;0.97;;;21.10;76.10;;;;;;5058936;28;20191;-68
2021/07/31 03:20:53;;;;;;;5.13;1.30;;;21.60;75.50;;;;;;5053562;28;20176;-67
2021/07/31 03:23:23;;;;;;;3.63;0.87;;;22.20;74.40;;;;;;5055139;28;20656;-68
2021/07/31 03:26:01;;;;;;;3.63;1.53;;;22.50;73.80;;;;;;5052515;28;20179;-68
2021/07/31 03:28:29;;;;;;;2.17;0.70;;;22.40;73.10;;;;;;5053208;28;20313;-68
2021/07/31 03:30:57;;;;;;;2.37;0.80;;;21.70;71.20;;;;;;5056424;28;20235;-67
2021/07/31 03:33:25;;;;;;;4.97;1.20;;;21.70;72.90;;;;;;5062045;28;20227;-67
2021/07/31 03:35:54;;;;;;;3.77;1.43;;;22.20;71.40;;;;;;5054823;28;20554;-69
2021/07/31 03:38:22;;;;;;;5.90;0.80;;;22.10;71.30;;;;;;5069229;28;20187;-68
2021/07/31 03:40:50;;;;;;;1.83;0.90;;;22.30;71.50;;;;;;5056870;28;20196;-67
2021/07/31 03:43:17;;;;;;;8.30;1.17;;;22.50;70.60;;;;;;5054542;28;20310;-67
2021/07/31 03:45:44;;;;;;;3.17;0.90;;;22.70;70.00;;;;;;5064092;28;20187;-67
2021/07/31 03:48:12;;;;;;;1.10;0.60;;;22.60;69.80;;;;;;5054031;28;20184;-67
2021/07/31 03:50:40;;;;;;;1.93;0.70;;;22.50;69.50;;;;;;5054957;28;20485;-67
2021/07/31 03:53:08;;;;;;;4.00;0.77;;;22.60;70.20;;;;;;5051539;28;20168;-67
2021/07/31 03:55:35;;;;;;;1.77;0.90;;;23.20;69.30;;;;;;5061722;28;20312;-68
2021/07/31 03:58:03;;;;;;;1.00;0.70;;;23.30;69.00;;;;;;5054231;28;20219;-67
2021/07/31 04:00:31;;;;;;;2.73;0.83;;;22.90;68.50;;;;;;5054047;28;20184;-68
2021/07/31 04:02:58;;;;;;;1.50;0.60;;;23.00;69.30;;;;;;5052329;28;20176;-67
2021/07/31 04:05:26;;;;;;;2.20;0.80;;;23.40;68.00;;;;;;5054575;28;20168;-65
2021/07/31 04:07:53;;;;;;;3.50;0.80;;;23.20;67.60;;;;;;5053666;28;20211;-67
2021/07/31 04:10:20;;;;;;;1.83;0.70;;;23.20;67.90;;;;;;5054471;28;20179;-68
2021/07/31 04:12:47;;;;;;;3.07;0.60;;;23.30;67.50;;;;;;5053926;28;20180;-67
2021/07/31 04:15:15;;;;;;;22.03;1.57;;;23.40;67.50;;;;;;5053939;28;20261;-67
2021/07/31 04:17:42;;;;;;;2.57;0.67;;;23.00;67.60;;;;;;5053844;28;20231;-66
2021/07/31 04:20:10;;;;;;;2.97;0.67;;;22.90;68.10;;;;;;5054239;28;20516;-68
2021/07/31 04:22:41;;;;;;;2.30;0.63;;;22.80;69.10;;;;;;5053451;28;20308;-68
2021/07/31 04:25:10;;;;;;;3.63;0.70;;;23.00;68.40;;;;;;5051579;28;20192;-69
2021/07/31 04:27:37;;;;;;;2.43;0.60;;;23.30;68.00;;;;;;5054004;28;20180;-69
2021/07/31 04:30:05;;;;;;;4.43;0.80;;;23.50;67.40;;;;;;5039934;28;20172;-68
2021/07/31 04:32:32;;;;;;;4.00;0.63;;;23.10;68.60;;;;;;5053793;28;20226;-70
2021/07/31 04:35:01;;;;;;;4.37;0.90;;;23.20;68.50;;;;;;5053249;28;20685;-68
2021/07/31 04:37:29;;;;;;;2.07;0.60;;;23.30;67.30;;;;;;5053450;28;20219;-70
2021/07/31 04:39:56;;;;;;;3.87;0.83;;;23.50;67.50;;;;;;5052971;28;20176;-67
2021/07/31 04:42:27;;;;;;;1.93;0.70;;;23.40;67.50;;;;;;5046554;28;20171;-71
2021/07/31 04:44:54;;;;;;;4.80;0.70;;;23.30;68.50;;;;;;5052056;28;20699;-68
2021/07/31 04:47:24;;;;;;;3.60;0.73;;;23.50;68.20;;;;;;5049319;28;20184;-68
2021/07/31 04:49:51;;;;;;;3.10;0.60;;;24.00;67.40;;;;;;5053426;28;20544;-71
2021/07/31 04:52:18;;;;;;;3.77;0.80;;;24.10;67.00;;;;;;5052940;28;20186;-71
2021/07/31 04:54:46;;;;;;;3.70;0.70;;;23.70;67.00;;;;;;5050135;28;20184;-71
2021/07/31 04:57:14;;;;;;;3.67;0.70;;;23.80;67.60;;;;;;5053572;28;20211;-72
2021/07/31 04:59:41;;;;;;;3.07;0.80;;;24.30;67.40;;;;;;5053350;28;20720;-71
2021/07/31 05:02:08;;;;;;;1.77;0.90;;;24.30;67.30;;;;;;5052959;28;20191;-71
2021/07/31 05:04:36;;;;;;;4.47;1.00;;;24.20;67.60;;;;;;5053298;28;20194;-70
2021/07/31 05:07:03;;;;;;;2.87;1.10;;;24.70;67.20;;;;;;5055960;28;20186;-71
2021/07/31 05:09:31;;;;;;;3.17;1.20;;;24.50;66.80;;;;;;5073361;28;20170;-70
2021/07/31 05:11:58;;;;;;;8.20;1.60;;;24.90;68.30;;;;;;5059610;28;20663;-69
2021/07/31 05:14:26;;;;;;;10.40;1.57;;;25.00;71.00;;;;;;5062488;28;20171;-70
2021/07/31 05:16:54;;;;;;;4.93;1.13;;;25.50;71.90;;;;;;5063201;28;20270;-68
2021/07/31 05:19:22;;;;;;;4.40;1.40;;;25.50;72.50;;;;;;5052877;28;20202;-70
2021/07/31 05:21:49;;;;;;;9.37;1.37;;;25.00;73.10;;;;;;5052284;28;20193;-68
2021/07/31 05:24:17;;;;;;;9.90;1.83;;;24.20;75.10;;;;;;5069303;28;20192;-68
2021/07/31 05:26:44;;;;;;;5.47;1.10;;;24.10;75.70;;;;;;5044313;28;20184;-70
2021/07/31 05:29:11;;;;;;;3.73;1.50;;;24.60;75.50;;;;;;5051606;28;20198;-68
2021/07/31 05:31:39;;;;;;;12.30;1.70;;;24.60;75.50;;;;;;5059647;28;20272;-70
2021/07/31 05:34:06;;;;;;;4.57;1.20;;;24.30;75.50;;;;;;5048616;28;20183;-68
2021/07/31 05:36:35;;;;;;;6.57;1.57;;;23.40;77.30;;;;;;5054294;28;20215;-70
2021/07/31 05:39:03;;;;;;;8.83;1.23;;;23.40;78.30;;;;;;5055257;28;20270;-69
2021/07/31 05:41:30;;;;;;;4.73;1.37;;;23.10;78.70;;;;;;5067211;28;20175;-70
2021/07/31 05:43:58;;;;;;;10.67;1.30;;;22.30;80.70;;;;;;5050068;28;20172;-68
2021/07/31 05:46:25;;;;;;;9.53;1.70;;;21.60;83.40;;;;;;5052019;28;20188;-67
2021/07/31 05:48:53;;;;;;;8.23;1.50;;;21.60;84.20;;;;;;5047821;28;20272;-69
2021/07/31 05:51:21;;;;;;;11.27;1.50;;;21.50;83.80;;;;;;5052722;28;20638;-71
2021/07/31 05:53:48;;;;;;;10.27;1.40;;;21.50;82.70;;;;;;5051988;28;20180;-69
2021/07/31 05:56:16;;;;;;;4.70;1.30;;;21.50;82.70;;;;;;5051878;28;20606;-69
2021/07/31 05:58:44;;;;;;;3.53;1.47;;;21.40;82.20;;;;;;5052036;28;20313;-70
2021/07/31 06:01:11;;;;;;;6.53;1.80;;;21.40;82.90;;;;;;5052396;28;20259;-69
2021/07/31 06:03:39;;;;;;;6.90;2.00;;;21.30;84.00;;;;;;5051822;28;20180;-69
2021/07/31 06:06:07;;;;;;;6.90;1.70;;;21.30;84.70;;;;;;5052348;28;20183;-68
2021/07/31 06:08:34;;;;;;;3.23;1.33;;;21.20;85.50;;;;;;5051376;28;20188;-69
2021/07/31 06:11:06;;;;;;;4.47;1.40;;;21.20;85.70;;;;;;5051957;28;20176;-69
2021/07/31 06:13:34;;;;;;;14.13;1.83;;;21.10;85.60;;;;;;5051485;28;20211;-70
2021/07/31 06:16:01;;;;;;;7.63;1.87;;;20.90;86.60;;;;;;5044630;28;20543;-68
2021/07/31 06:18:28;;;;;;;16.73;2.13;;;20.80;88.00;;;;;;5051837;28;20180;-68
2021/07/31 06:20:56;;;;;;;11.80;1.83;;;20.70;89.20;;;;;;5051673;28;20252;-70
2021/07/31 06:23:23;;;;;;;6.97;2.20;;;20.50;90.20;;;;;;5052021;28;20175;-70
2021/07/31 06:25:50;;;;;;;6.73;1.67;;;20.40;91.00;;;;;;5052016;28;20184;-69
2021/07/31 06:28:17;;;;;;;7.20;1.87;;;20.20;91.60;;;;;;5054713;28;20672;-70
2021/07/31 06:30:45;;;;;;;9.97;2.07;;;20.10;92.20;;;;;;5055941;28;20270;-70
2021/07/31 06:33:13;;;;;;;10.53;1.97;;;19.90;92.70;;;;;;5056221;28;20231;-70
2021/07/31 06:35:40;;;;;;;7.33;1.80;;;19.80;93.30;;;;;;5055622;28;20591;-69
2021/07/31 06:38:07;;;;;;;9.23;1.70;;;19.70;93.90;;;;;;5055884;28;20187;-69
2021/07/31 06:40:35;;;;;;;3.90;2.03;;;19.60;94.40;;;;;;5056308;28;20697;-69
2021/07/31 06:43:02;;;;;;;8.20;1.80;;;19.60;94.70;;;;;;5055712;28;20578;-70
2021/07/31 06:45:30;;;;;;;11.27;2.27;;;19.60;94.70;;;;;;5056343;28;20271;-68
2021/07/31 06:47:58;;;;;;;9.13;2.17;;;19.60;94.70;;;;;;5052100;28;20207;-70
2021/07/31 06:50:25;;;;;;;8.93;1.60;;;19.60;94.90;;;;;;5054810;28;20188;-70
2021/07/31 06:52:53;;;;;;;11.97;2.00;;;19.50;94.80;;;;;;5054886;28;20205;-69
2021/07/31 06:55:20;;;;;;;11.53;2.30;;;19.60;94.90;;;;;;5054573;28;20220;-70
2021/07/31 06:57:47;;;;;;;7.00;2.20;;;19.60;95.00;;;;;;5054938;28;20566;-70
2021/07/31 07:00:15;;;;;;;10.40;2.00;;;19.50;95.00;;;;;;5045256;28;20195;-69
2021/07/31 07:02:42;;;;;;;7.47;1.70;;;19.50;95.30;;;;;;5052250;28;20194;-67
2021/07/31 07:05:10;;;;;;;14.67;2.00;;;19.40;95.30;;;;;;5052791;28;20187;-68
2021/07/31 07:07:37;;;;;;;6.87;1.50;;;19.40;95.40;;;;;;5047837;28;20264;-68
2021/07/31 07:10:06;;;;;;;7.47;1.60;;;19.30;95.40;;;;;;5055339;28;20180;-68
2021/07/31 07:12:33;;;;;;;8.13;2.07;;;19.20;95.40;;;;;;5051170;28;20188;-68
2021/07/31 07:15:00;;;;;;;6.30;2.77;;;19.10;95.60;;;;;;5052721;28;20186;-69
2021/07/31 07:17:28;;;;;;;8.83;2.80;;;19.00;95.80;;;;;;5055406;28;20211;-68
2021/07/31 07:19:55;;;;;;;10.03;3.00;;;19.00;96.10;;;;;;5050635;28;20176;-69
2021/07/31 07:22:22;;;;;;;9.63;2.13;;;18.90;96.40;;;;;;5041481;28;20200;-69
2021/07/31 07:24:52;;;;;;;12.40;2.77;;;18.80;96.70;;;;;;5055056;28;20191;-68
2021/07/31 07:27:20;;;;;;;9.57;2.60;;;18.70;97.30;;;;;;5044777;28;20184;-69
2021/07/31 07:29:51;;;;;;;11.23;2.77;;;18.70;97.70;;;;;;5052693;28;20191;-70
2021/07/31 07:32:18;;;;;;;10.27;2.20;;;18.60;98.00;;;;;;5049818;28;20266;-68
2021/07/31 07:34:45;;;;;;;6.47;2.10;;;18.50;98.30;;;;;;5049491;28;20624;-69
2021/07/31 07:37:13;;;;;;;12.93;2.60;;;18.40;98.70;;;;;;5050033;28;20708;-68
2021/07/31 07:39:40;;;;;;;7.07;1.83;;;18.40;99.10;;;;;;5053701;28;20176;-68
2021/07/31 07:42:07;;;;;;;9.57;2.30;;;18.30;99.40;;;;;;5054497;28;20169;-68
2021/07/31 07:44:35;;;;;;;7.63;2.27;;;18.20;99.70;;;;;;5054623;28;20230;-68
2021/07/31 07:47:02;;;;;;;12.40;2.30;;;18.10;99.90;;;;;;5054149;28;20230;-69
2021/07/31 07:49:30;;;;;;;10.20;2.33;;;18.10;99.90;;;;;;5054099;28;20176;-66
2021/07/31 07:51:57;;;;;;;12.43;2.60;;;18.00;99.90;;;;;;5058949;28;20238;-69
2021/07/31 07:54:24;;;;;;;9.63;2.20;;;18.00;99.90;;;;;;5054716;28;20266;-69
2021/07/31 07:56:52;;;;;;;6.40;2.70;;;17.90;99.90;;;;;;5056613;28;20215;-68
2021/07/31 07:59:19;;;;;;;8.87;2.30;;;17.90;99.90;;;;;;5054348;28;20250;-68
2021/07/31 08:01:46;;;;;;;9.53;2.50;;;17.80;99.90;;;;;;5054961;28;20194;-68
2021/07/31 08:04:14;;;;;;;6.47;1.80;;;17.80;99.90;;;;;;5054311;28;20184;-69
2021/07/31 08:06:42;;;;;;;6.93;2.27;;;17.80;99.90;;;;;;5056942;28;20207;-69
2021/07/31 08:09:09;;;;;;;6.33;2.20;;;17.70;99.90;;;;;;5059707;28;20654;-70
2021/07/31 08:11:37;;;;;;;8.37;2.67;;;17.70;99.90;;;;;;5054433;28;20641;-69
2021/07/31 08:14:04;;;;;;;8.60;2.70;;;17.60;99.90;;;;;;5054170;28;20179;-70
2021/07/31 08:16:31;;;;;;;3.73;2.10;;;17.60;99.90;;;;;;5054159;28;20215;-69
2021/07/31 08:18:59;;;;;;;7.40;2.60;;;17.50;99.90;;;;;;5053750;28;20186;-68
2021/07/31 08:21:26;;;;;;;13.30;2.40;;;17.50;99.90;;;;;;5053343;28;20184;-68
2021/07/31 08:23:54;;;;;;;3.87;1.97;;;17.40;99.90;;;;;;5053233;28;20190;-68
2021/07/31 08:26:21;;;;;;;10.33;2.53;;;17.40;99.90;;;;;;5053979;28;20180;-68
2021/07/31 08:28:50;;;;;;;8.10;2.50;;;17.40;99.90;;;;;;5053712;28;20698;-69
2021/07/31 08:31:18;;;;;;;6.93;2.63;;;17.50;99.90;;;;;;5053427;28;20744;-67
2021/07/31 08:33:46;;;;;;;3.43;2.10;;;17.40;99.90;;;;;;5052135;28;20199;-67
2021/07/31 08:36:13;;;;;;;8.50;2.57;;;17.50;99.90;;;;;;5053637;28;20204;-67
2021/07/31 08:38:40;;;;;;;8.17;2.47;;;17.60;99.90;;;;;;5054187;28;20654;-68
2021/07/31 08:41:08;;;;;;;6.63;2.40;;;17.60;99.90;;;;;;5054124;28;20187;-68
2021/07/31 08:43:35;;;;;;;6.20;2.37;;;17.60;99.90;;;;;;5053513;28;20180;-69
2021/07/31 08:46:07;;;;;;;7.60;2.70;;;17.60;99.90;;;;;;5053333;28;20249;-67
2021/07/31 08:48:35;;;;;;;4.67;2.10;;;17.60;99.90;;;;;;5054040;28;20180;-67
2021/07/31 08:51:03;;;;;;;4.67;2.53;;;17.60;99.90;;;;;;5059493;28;20179;-68
2021/07/31 08:53:31;;;;;;;6.07;2.40;;;17.50;99.90;;;;;;5057839;28;20188;-68
2021/07/31 08:56:00;;;;;;;6.83;2.10;;;17.60;99.80;;;;;;5057438;28;20211;-67
2021/07/31 08:58:28;;;;;;;7.13;2.60;;;17.60;99.60;;;;;;5049702;28;20180;-69
2021/07/31 09:00:57;;;;;;;7.07;2.30;;;17.70;99.40;;;;;;5052465;28;20646;-67
2021/07/31 09:03:25;;;;;;;6.53;2.23;;;17.70;98.90;;;;;;5053594;28;20164;-69
2021/07/31 09:05:52;;;;;;;10.83;3.13;;;17.80;98.80;;;;;;5053070;28;20230;-67
2021/07/31 09:08:19;;;;;;;6.80;2.30;;;17.80;98.60;;;;;;5053675;28;20175;-68
2021/07/31 09:10:47;;;;;;;9.47;2.77;;;17.90;98.30;;;;;;5052899;28;20183;-67
2021/07/31 09:13:19;;;;;;;9.13;2.60;;;17.90;98.10;;;;;;5052996;28;20183;-67
2021/07/31 09:15:52;;;;;;;5.77;2.43;;;17.80;98.10;;;;;;5044081;28;20176;-70
2021/07/31 09:18:34;;;;;;;9.77;2.63;;;17.80;97.80;;;;;;5044764;28;20646;-68
2021/07/31 09:21:12;;;;;;;5.97;2.27;;;17.90;97.70;;;;;;5045185;28;20639;-67
2021/07/31 09:23:50;;;;;;;5.53;2.43;;;17.90;97.40;;;;;;5040458;28;20191;-67
2021/07/31 09:26:20;;;;;;;10.07;2.47;;;17.90;97.20;;;;;;5045421;28;20176;-71
2021/07/31 09:28:59;;;;;;;7.17;2.33;;;17.80;97.10;;;;;;5049448;28;20207;-70
2021/07/31 09:31:27;;;;;;;5.10;2.03;;;17.90;96.70;;;;;;5036371;28;20578;-67
2021/07/31 09:33:56;;;;;;;11.23;2.93;;;17.90;96.50;;;;;;5058661;28;20232;-67
2021/07/31 09:36:34;;;;;;;4.87;2.23;;;17.90;96.30;;;;;;5058672;28;20211;-69
2021/07/31 09:39:01;;;;;;;11.00;2.07;;;17.90;96.10;;;;;;5049161;28;21142;-69
2021/07/31 09:41:34;;;;;;;8.13;2.53;;;18.00;95.70;;;;;;5059087;28;20174;-69
2021/07/31 09:44:10;;;;;;;5.00;2.13;;;17.90;95.80;;;;;;5046200;28;20200;-69
2021/07/31 09:46:51;;;;;;;3.07;1.83;;;17.90;95.50;;;;;;5049746;28;20206;-69
2021/07/31 09:49:21;;;;;;;3.83;2.10;;;17.90;95.30;;;;;;5037264;28;20266;-69
2021/07/31 09:51:50;;;;;;;6.40;2.13;;;17.90;95.10;;;;;;5051704;28;20220;-69
2021/07/31 09:54:22;;;;;;;8.83;2.23;;;18.00;94.90;;;;;;5051094;28;20190;-69
2021/07/31 09:56:52;;;;;;;8.20;2.63;;;18.00;94.90;;;;;;5051486;28;20210;-68
2021/07/31 09:59:22;;;;;;;6.47;2.63;;;18.00;94.80;;;;;;5052386;28;20190;-69
2021/07/31 10:02:03;;;;;;;6.33;2.83;;;17.90;94.90;;;;;;5047403;28;20176;-69
2021/07/31 10:04:33;;;;;;;8.70;2.73;;;17.90;94.80;;;;;;5043958;28;20187;-69
2021/07/31 10:07:04;;;;;;;5.30;2.27;;;17.90;94.80;;;;;;5050786;28;20184;-69
2021/07/31 10:09:33;;;;;;;7.03;2.57;;;17.90;94.70;;;;;;5051038;28;20191;-68
2021/07/31 10:12:03;;;;;;;8.57;3.07;;;17.80;94.60;;;;;;5052141;28;20204;-69
2021/07/31 10:14:31;;;;;;;4.87;2.10;;;17.80;94.40;;;;;;5051899;28;20176;-69
2021/07/31 10:16:59;;;;;;;6.77;2.43;;;17.90;94.20;;;;;;5051901;28;20571;-69
2021/07/31 10:19:26;;;;;;;6.73;2.40;;;17.90;94.20;;;;;;5052262;28;20183;-69
2021/07/31 10:21:58;;;;;;;7.37;2.73;;;18.00;94.10;;;;;;5052208;28;20195;-68
2021/07/31 10:24:28;;;;;;;7.37;2.27;;;17.90;94.00;;;;;;5051855;28;20218;-69
2021/07/31 10:27:23;;;;;;;6.70;2.90;;;17.90;94.00;;;;;;5051926;28;20600;-69
2021/07/31 10:29:54;;;;;;;10.33;3.27;;;17.90;94.20;;;;;;5047666;28;20677;-68
2021/07/31 10:32:21;;;;;;;8.20;2.40;;;17.80;94.30;;;;;;5052177;28;20230;-68
2021/07/31 10:34:50;;;;;;;9.43;2.63;;;17.70;94.20;;;;;;5051250;28;20180;-68
2021/07/31 10:37:29;;;;;;;4.63;2.60;;;17.70;94.30;;;;;;5052198;28;20211;-68
2021/07/31 10:40:00;;;;;;;5.10;2.47;;;17.90;93.90;;;;;;5051975;28;20183;-67
2021/07/31 10:42:47;;;;;;;7.90;2.87;;;17.90;93.60;;;;;;5051793;28;20202;-68
2021/07/31 10:45:18;;;;;;;4.63;2.20;;;17.90;93.90;;;;;;5050918;28;20180;-68
2021/07/31 10:47:56;;;;;;;6.10;2.07;;;18.00;93.50;;;;;;5051926;28;20184;-68
2021/07/31 10:50:26;;;;;;;8.17;2.60;;;18.00;93.50;;;;;;5051861;28;20229;-69
2021/07/31 10:53:02;;;;;;;5.07;2.57;;;18.00;93.60;;;;;;5051464;28;20191;-68
2021/07/31 10:55:39;;;;;;;8.67;2.60;;;18.00;93.30;;;;;;5050784;28;20193;-68
2021/07/31 10:58:07;;;;;;;7.00;2.93;;;18.00;93.20;;;;;;5051458;28;20210;-69
2021/07/31 11:00:40;;;;;;;6.83;2.20;;;18.00;93.30;;;;;;5050969;28;20538;-68
2021/07/31 11:03:20;;;;;;;4.73;2.40;;;18.00;93.20;;;;;;5051918;28;20258;-69
2021/07/31 11:06:06;;;;;;;5.63;2.37;;;18.00;93.10;;;;;;5051285;28;20623;-68
2021/07/31 11:08:35;;;;;;;7.37;2.33;;;18.00;93.10;;;;;;5051716;28;20172;-67
2021/07/31 11:11:26;;;;;;;6.57;2.73;;;17.90;93.20;;;;;;5051341;28;20254;-68
2021/07/31 11:13:55;;;;;;;9.67;2.53;;;17.90;93.20;;;;;;5047127;28;20715;-67
2021/07/31 11:16:23;;;;;;;5.47;2.53;;;17.90;93.30;;;;;;5052198;28;20210;-67
2021/07/31 11:18:54;;;;;;;4.83;2.00;;;18.00;93.30;;;;;;5055219;28;20180;-67
2021/07/31 11:21:24;;;;;;;3.27;1.90;;;17.90;93.20;;;;;;5054833;28;20195;-67
2021/07/31 11:24:12;;;;;;;6.10;2.93;;;18.00;93.20;;;;;;5055243;28;20187;-67
2021/07/31 11:26:52;;;;;;;5.23;2.60;;;18.00;93.10;;;;;;5054620;28;20184;-68
2021/07/31 11:29:21;;;;;;;6.20;1.90;;;18.00;93.00;;;;;;5052120;28;20509;-67
2021/07/31 11:32:12;;;;;;;7.77;1.93;;;18.00;93.00;;;;;;5051023;28;20261;-68
2021/07/31 11:34:41;;;;;;;10.87;2.53;;;18.00;93.00;;;;;;5053582;28;20220;-67
2021/07/31 11:37:09;;;;;;;3.77;1.80;;;18.00;93.00;;;;;;5050526;28;20211;-67
2021/07/31 11:39:37;;;;;;;7.53;2.43;;;18.10;92.90;;;;;;5055189;28;20232;-67
2021/07/31 11:42:06;;;;;;;7.10;2.97;;;18.00;92.90;;;;;;5054195;28;20237;-68
2021/07/31 11:44:35;;;;;;;6.87;2.43;;;18.00;92.90;;;;;;5055267;28;20179;-68
2021/07/31 11:47:03;;;;;;;6.63;2.30;;;18.00;93.00;;;;;;5053103;28;20202;-68
2021/07/31 11:49:38;;;;;;;5.83;1.80;;;18.00;93.00;;;;;;5054921;28;20202;-69
2021/07/31 11:52:06;;;;;;;5.77;1.67;;;18.00;93.00;;;;;;5054116;28;20180;-69
2021/07/31 11:54:38;;;;;;;6.10;2.33;;;18.00;93.10;;;;;;5054199;28;20194;-69
2021/07/31 11:57:06;;;;;;;4.53;1.90;;;18.00;93.10;;;;;;5053979;28;20256;-69
2021/07/31 11:59:35;;;;;;;6.10;2.20;;;18.00;93.10;;;;;;5050162;28;20207;-68
2021/07/31 12:02:03;;;;;;;3.70;1.53;;;18.00;93.10;;;;;;5051344;28;20661;-67
2021/07/31 12:04:50;;;;;;;7.07;1.77;;;17.90;93.30;;;;;;5047726;28;20260;-69
2021/07/31 12:07:23;;;;;;;5.27;1.70;;;17.80;93.50;;;;;;5051920;28;20179;-68
2021/07/31 12:10:13;;;;;;;8.53;1.83;;;17.70;93.70;;;;;;5054591;28;20182;-69
2021/07/31 12:12:47;;;;;;;4.80;2.13;;;17.60;93.90;;;;;;5053438;28;20179;-69
2021/07/31 12:15:15;;;;;;;4.87;1.70;;;17.60;94.00;;;;;;5052263;28;20230;-68
2021/07/31 12:18:05;;;;;;;8.07;1.80;;;17.50;94.20;;;;;;5042113;28;20608;-68
2021/07/31 12:20:43;;;;;;;3.60;1.87;;;17.50;94.30;;;;;;5053653;28;20176;-68
2021/07/31 12:23:12;;;;;;;5.07;1.93;;;17.50;94.30;;;;;;5053681;28;20660;-68
2021/07/31 12:26:00;;;;;;;3.83;1.77;;;17.50;94.40;;;;;;5052593;28;20543;-68
2021/07/31 12:28:43;;;;;;;7.37;2.20;;;17.50;94.50;;;;;;5054332;28;20709;-69
2021/07/31 12:31:27;;;;;;;6.20;2.30;;;17.60;94.40;;;;;;5049797;28;20185;-68
2021/07/31 12:33:55;;;;;;;6.00;2.03;;;17.60;94.30;;;;;;5054299;28;20190;-68
2021/07/31 12:36:23;;;;;;;9.27;2.07;;;17.60;94.40;;;;;;5053176;28;20215;-68
2021/07/31 12:38:54;;;;;;;5.93;1.97;;;17.60;94.40;;;;;;5053968;28;20187;-69
2021/07/31 12:41:25;;;;;;;4.40;2.00;;;17.50;94.30;;;;;;5051512;28;20703;-68
2021/07/31 12:43:53;;;;;;;6.17;2.00;;;17.60;94.50;;;;;;5050192;28;20233;-68
2021/07/31 12:46:21;;;;;;;3.90;1.83;;;17.50;94.50;;;;;;5047408;28;20179;-68
2021/07/31 12:48:50;;;;;;;6.87;1.50;;;17.50;94.60;;;;;;5049302;28;20185;-68
2021/07/31 12:51:18;;;;;;;4.40;1.43;;;17.40;94.70;;;;;;5053611;28;20191;-69
2021/07/31 12:53:45;;;;;;;5.10;1.53;;;17.40;94.70;;;;;;5049132;28;20183;-68
2021/07/31 12:56:12;;;;;;;4.07;1.53;;;17.30;94.90;;;;;;5053619;28;20586;-69
2021/07/31 12:58:40;;;;;;;5.30;2.00;;;17.20;94.90;;;;;;5053263;28;20265;-68